Time;durP1;ratioP1;P1;durP2;ratioP2;P2;SDS_P1;SDS_P2;PMS_P1;PMS_P2;Temp;Humidity;BMP_temperature;BMP_pressure;BME280_temperature;BME280_humidity;BME280_pressure;Samples;Min_cycle;Max_cycle;Signal;HPM_P1;HPM_P2
2022/02/24 00:01:58;;;;;;;8.25;3.45;;;11.70;53.50;;;;;;6201597;28;20070;-71
2022/02/24 00:04:59;;;;;;;9.05;3.13;;;11.70;53.50;;;;;;6200394;28;20038;-71
2022/02/24 00:08:00;;;;;;;7.57;3.15;;;11.70;53.70;;;;;;6199348;28;20041;-70
2022/02/24 00:11:01;;;;;;;10.13;3.97;;;11.60;53.70;;;;;;6179220;28;20531;-70
2022/02/24 00:14:02;;;;;;;8.07;3.58;;;11.60;53.80;;;;;;6184428;28;20359;-70
2022/02/24 00:17:04;;;;;;;10.82;3.50;;;11.50;53.80;;;;;;6197878;28;20062;-71
2022/02/24 00:20:08;;;;;;;9.75;3.85;;;11.50;53.90;;;;;;6202094;28;20034;-71
2022/02/24 00:23:09;;;;;;;9.23;3.95;;;11.50;54.00;;;;;;6199177;28;20378;-70
2022/02/24 00:26:09;;;;;;;10.93;4.57;;;11.40;53.90;;;;;;6216642;28;20038;-70
2022/02/24 00:29:10;;;;;;;9.82;3.60;;;11.50;54.00;;;;;;6201070;28;20034;-71
2022/02/24 00:32:11;;;;;;;8.90;3.55;;;11.40;54.10;;;;;;6200149;28;20418;-72
2022/02/24 00:35:12;;;;;;;9.65;4.13;;;11.40;54.20;;;;;;6200516;28;20046;-71
2022/02/24 00:38:13;;;;;;;8.70;4.03;;;11.40;54.30;;;;;;6200168;28;20061;-72
2022/02/24 00:41:14;;;;;;;9.05;3.80;;;11.30;54.40;;;;;;6215461;28;20034;-71
2022/02/24 00:44:15;;;;;;;7.65;3.97;;;11.30;54.50;;;;;;6200186;28;20069;-72
2022/02/24 00:47:16;;;;;;;9.52;4.15;;;11.30;54.60;;;;;;6184169;28;20117;-72
2022/02/24 00:50:17;;;;;;;9.93;3.53;;;11.30;54.70;;;;;;6200439;28;20034;-70
2022/02/24 00:53:18;;;;;;;7.47;3.53;;;11.20;54.60;;;;;;6200246;28;20424;-70
2022/02/24 00:56:19;;;;;;;9.85;3.58;;;11.20;54.80;;;;;;6198923;28;20054;-70
2022/02/24 00:59:20;;;;;;;9.75;4.10;;;11.20;55.00;;;;;;6199042;28;20116;-70
2022/02/24 01:02:21;;;;;;;11.00;3.88;;;11.10;54.90;;;;;;6199819;28;20121;-70
2022/02/24 01:05:21;;;;;;;10.45;4.22;;;11.10;54.90;;;;;;6199872;28;20034;-70
2022/02/24 01:08:22;;;;;;;11.20;3.83;;;11.10;54.90;;;;;;6211789;28;20042;-71
2022/02/24 01:11:23;;;;;;;8.55;4.22;;;11.10;54.80;;;;;;6200922;28;20047;-70
2022/02/24 01:14:24;;;;;;;15.60;4.35;;;11.20;54.80;;;;;;6199100;28;20057;-70
2022/02/24 01:17:25;;;;;;;9.38;4.22;;;11.20;54.80;;;;;;6197740;28;20104;-70
2022/02/24 01:20:26;;;;;;;13.07;4.05;;;11.10;54.60;;;;;;6183092;28;20069;-70
2022/02/24 01:23:27;;;;;;;9.90;4.13;;;11.10;54.70;;;;;;6199576;28;20045;-70
2022/02/24 01:26:28;;;;;;;7.47;3.83;;;11.10;54.70;;;;;;6200403;28;20042;-70
2022/02/24 01:29:29;;;;;;;6.40;3.35;;;11.10;54.70;;;;;;6197010;28;20042;-70
2022/02/24 01:32:30;;;;;;;10.63;4.25;;;11.10;54.70;;;;;;6175057;28;20139;-69
2022/02/24 01:35:30;;;;;;;10.15;3.45;;;11.00;54.70;;;;;;6180719;28;20036;-70
2022/02/24 01:38:31;;;;;;;10.15;3.78;;;11.00;54.70;;;;;;6198024;28;20092;-70
2022/02/24 01:41:32;;;;;;;6.57;3.28;;;11.10;54.90;;;;;;6204597;28;20054;-70
2022/02/24 01:44:45;;;;;;;11.85;4.30;;;11.00;55.00;;;;;;6199328;28;20368;-70
2022/02/24 01:47:45;;;;;;;7.22;3.88;;;11.00;55.00;;;;;;6198455;28;20038;-71
2022/02/24 01:50:46;;;;;;;12.25;3.30;;;11.00;55.00;;;;;;6200111;28;20045;-71
2022/02/24 01:53:47;;;;;;;9.32;3.95;;;11.00;55.00;;;;;;6198502;28;20041;-71
2022/02/24 01:56:48;;;;;;;8.50;3.28;;;10.90;55.00;;;;;;6199760;28;20046;-71
2022/02/24 01:59:50;;;;;;;12.18;3.33;;;11.00;55.00;;;;;;6198697;28;20037;-70
2022/02/24 02:02:51;;;;;;;5.75;3.13;;;10.90;55.00;;;;;;6198250;28;20447;-71
2022/02/24 02:05:54;;;;;;;4.53;2.63;;;10.90;55.00;;;;;;6198917;28;20065;-71
2022/02/24 02:08:55;;;;;;;8.40;2.50;;;10.90;54.90;;;;;;6187731;28;20038;-71
2022/02/24 02:11:56;;;;;;;7.90;2.80;;;10.90;54.90;;;;;;6199472;28;20081;-71
2022/02/24 02:14:57;;;;;;;10.48;3.50;;;10.90;55.00;;;;;;6198296;28;20047;-71
2022/02/24 02:17:57;;;;;;;7.18;3.05;;;10.80;55.00;;;;;;6197550;28;20049;-71
2022/02/24 02:20:59;;;;;;;10.45;3.55;;;10.80;55.10;;;;;;6198451;28;20458;-71
2022/02/24 02:24:01;;;;;;;8.95;3.95;;;10.80;55.20;;;;;;6197262;28;20113;-71
2022/02/24 02:27:02;;;;;;;5.03;2.80;;;10.80;55.30;;;;;;6214290;28;20383;-71
2022/02/24 02:30:07;;;;;;;12.82;4.30;;;10.80;55.50;;;;;;6212623;28;20035;-73
2022/02/24 02:33:09;;;;;;;9.20;4.32;;;10.70;55.60;;;;;;6185810;28;20039;-71
2022/02/24 02:36:10;;;;;;;9.75;4.43;;;10.70;55.80;;;;;;6181845;28;20113;-71
2022/02/24 02:39:12;;;;;;;7.00;3.80;;;10.70;55.90;;;;;;6198122;28;20050;-71
2022/02/24 02:42:14;;;;;;;8.75;3.80;;;10.60;55.90;;;;;;6198213;28;20046;-70
2022/02/24 02:45:15;;;;;;;11.63;4.15;;;10.60;56.00;;;;;;6214344;28;20035;-70
2022/02/24 02:48:16;;;;;;;10.73;4.07;;;10.50;56.00;;;;;;6197851;28;20058;-70
2022/02/24 02:51:17;;;;;;;13.23;3.83;;;10.50;56.10;;;;;;6214598;28;20039;-70
2022/02/24 02:54:18;;;;;;;8.68;3.65;;;10.50;56.20;;;;;;6213184;28;20348;-71
2022/02/24 02:57:19;;;;;;;9.50;4.13;;;10.50;56.20;;;;;;6198762;28;20042;-70
2022/02/24 03:00:20;;;;;;;10.18;3.92;;;10.50;56.20;;;;;;6197965;28;20049;-70
2022/02/24 03:03:24;;;;;;;11.68;4.57;;;10.50;56.20;;;;;;6214258;28;20049;-70
2022/02/24 03:06:25;;;;;;;12.52;4.60;;;10.40;56.10;;;;;;6213020;28;20038;-71
2022/02/24 03:09:26;;;;;;;9.93;3.60;;;10.40;56.10;;;;;;6197780;28;20035;-70
2022/02/24 03:12:27;;;;;;;7.78;3.50;;;10.30;56.20;;;;;;6197303;28;20034;-70
2022/02/24 03:15:28;;;;;;;11.52;3.30;;;10.30;56.30;;;;;;6197553;28;20034;-71
2022/02/24 03:18:29;;;;;;;5.70;2.97;;;10.20;56.60;;;;;;6179732;28;20345;-70
2022/02/24 03:21:30;;;;;;;8.00;3.53;;;10.10;56.70;;;;;;6183618;28;20432;-70
2022/02/24 03:24:31;;;;;;;8.95;3.30;;;10.10;56.90;;;;;;6196235;28;20097;-71
2022/02/24 03:27:32;;;;;;;13.73;3.47;;;10.00;57.00;;;;;;6203718;28;20470;-70
2022/02/24 03:30:34;;;;;;;7.95;3.00;;;10.00;57.00;;;;;;6188815;28;20069;-70
2022/02/24 03:33:36;;;;;;;6.90;3.03;;;10.00;57.00;;;;;;6184227;28;20455;-70
2022/02/24 03:36:38;;;;;;;13.23;3.65;;;10.00;57.00;;;;;;6198335;28;20043;-71
2022/02/24 03:39:39;;;;;;;7.75;2.78;;;10.00;57.10;;;;;;6211511;28;20038;-71
2022/02/24 03:42:40;;;;;;;6.60;2.80;;;10.00;57.10;;;;;;6201089;28;20035;-71
2022/02/24 03:45:41;;;;;;;7.50;3.00;;;10.00;57.00;;;;;;6201398;28;20383;-70
2022/02/24 03:48:42;;;;;;;8.38;3.20;;;10.00;57.00;;;;;;6201947;28;20073;-70
2022/02/24 03:51:43;;;;;;;9.85;2.72;;;10.00;56.90;;;;;;6200542;28;20034;-70
2022/02/24 03:54:45;;;;;;;8.13;3.28;;;10.10;56.90;;;;;;6202566;28;20487;-70
2022/02/24 03:57:46;;;;;;;5.35;2.70;;;10.00;56.90;;;;;;6202635;28;20034;-70
2022/02/24 04:00:47;;;;;;;5.35;2.95;;;10.00;57.00;;;;;;6200257;28;20045;-71
2022/02/24 04:03:48;;;;;;;10.55;3.45;;;9.90;57.00;;;;;;6217404;28;20034;-70
2022/02/24 04:06:50;;;;;;;12.07;3.83;;;9.90;57.20;;;;;;6188936;28;20459;-70
2022/02/24 04:09:51;;;;;;;7.18;3.17;;;9.80;57.40;;;;;;6200420;28;20026;-70
2022/02/24 04:12:52;;;;;;;7.63;2.95;;;9.80;57.50;;;;;;6201340;28;20053;-70
2022/02/24 04:15:53;;;;;;;6.90;2.63;;;9.70;57.70;;;;;;6201210;28;20034;-70
2022/02/24 04:18:54;;;;;;;5.82;3.15;;;9.60;57.70;;;;;;6201071;28;20037;-71
2022/02/24 04:21:55;;;;;;;7.22;2.97;;;9.60;57.90;;;;;;6201718;28;20436;-70
2022/02/24 04:24:58;;;;;;;10.23;3.15;;;9.60;57.80;;;;;;6199590;28;20359;-70
2022/02/24 04:27:59;;;;;;;5.43;2.72;;;9.70;57.80;;;;;;6198230;28;20110;-70
2022/02/24 04:31:00;;;;;;;4.65;2.20;;;9.70;58.30;;;;;;6217068;28;20451;-70
2022/02/24 04:34:01;;;;;;;7.57;2.70;;;9.80;57.60;;;;;;6200627;28;20030;-70
2022/02/24 04:37:02;;;;;;;9.68;3.00;;;9.90;57.50;;;;;;6201088;28;20364;-70
2022/02/24 04:40:05;;;;;;;5.28;2.92;;;10.00;57.40;;;;;;6199769;28;20394;-71
2022/02/24 04:43:06;;;;;;;7.28;2.80;;;10.00;57.30;;;;;;6200733;28;20030;-70
2022/02/24 04:46:07;;;;;;;5.72;2.78;;;10.10;57.20;;;;;;6199287;28;20069;-70
2022/02/24 04:49:08;;;;;;;8.15;2.67;;;10.00;57.10;;;;;;6201497;28;20026;-70
2022/02/24 04:52:09;;;;;;;10.90;3.15;;;10.00;57.70;;;;;;6200421;28;20041;-70
2022/02/24 04:55:10;;;;;;;6.60;2.83;;;10.10;57.10;;;;;;6200602;28;20161;-71
2022/02/24 04:58:11;;;;;;;10.60;2.58;;;10.00;57.10;;;;;;6183844;28;20042;-70
2022/02/24 05:01:12;;;;;;;9.27;2.92;;;10.10;57.00;;;;;;6215355;28;20034;-70
2022/02/24 05:04:13;;;;;;;9.70;2.80;;;10.10;57.00;;;;;;6200979;28;20422;-70
2022/02/24 05:07:14;;;;;;;12.60;3.22;;;10.10;57.00;;;;;;6215080;28;20049;-70
2022/02/24 05:10:15;;;;;;;8.10;2.70;;;10.10;57.00;;;;;;6198773;28;20038;-70
2022/02/24 05:13:16;;;;;;;6.45;3.30;;;10.10;57.00;;;;;;6200605;28;20510;-70
2022/02/24 05:16:16;;;;;;;6.75;3.00;;;10.10;57.00;;;;;;6208486;28;20038;-70
2022/02/24 05:19:17;;;;;;;13.13;3.33;;;10.10;56.90;;;;;;6215669;28;20128;-71
2022/02/24 05:22:18;;;;;;;11.50;3.30;;;10.10;56.80;;;;;;6215507;28;20344;-70
2022/02/24 05:25:19;;;;;;;6.68;2.65;;;10.00;56.80;;;;;;6200390;28;20049;-70
2022/02/24 05:28:20;;;;;;;6.75;2.67;;;10.00;56.80;;;;;;6214569;28;20189;-70
2022/02/24 05:31:20;;;;;;;5.30;2.55;;;10.00;56.80;;;;;;6199247;28;20099;-71
2022/02/24 05:34:21;;;;;;;7.57;2.58;;;10.00;56.70;;;;;;6198896;28;20355;-70
2022/02/24 05:37:26;;;;;;;5.70;2.75;;;9.90;56.60;;;;;;6182651;28;20475;-70
2022/02/24 05:40:27;;;;;;;5.70;2.25;;;9.90;56.60;;;;;;6197979;28;20034;-71
2022/02/24 05:43:28;;;;;;;5.25;2.22;;;9.90;56.60;;;;;;6198254;28;20038;-70
2022/02/24 05:46:28;;;;;;;12.35;3.58;;;9.90;56.50;;;;;;6215059;28;20039;-70
2022/02/24 05:49:29;;;;;;;5.57;2.70;;;9.80;56.50;;;;;;6198969;28;20043;-70
2022/02/24 05:52:30;;;;;;;7.35;2.53;;;9.80;56.60;;;;;;6200192;28;20121;-70
2022/02/24 05:55:32;;;;;;;7.90;2.65;;;9.80;56.70;;;;;;6198774;28;20042;-70
2022/02/24 05:58:33;;;;;;;4.72;2.20;;;9.80;56.70;;;;;;6198595;28;20046;-70
2022/02/24 06:01:34;;;;;;;6.85;2.25;;;9.80;56.70;;;;;;6198674;28;20056;-71
2022/02/24 06:04:35;;;;;;;7.30;3.00;;;9.80;56.60;;;;;;6198588;28;20341;-71
2022/02/24 06:07:36;;;;;;;4.80;2.15;;;9.70;56.50;;;;;;6191327;28;20042;-71
2022/02/24 06:10:37;;;;;;;6.22;2.28;;;9.80;56.50;;;;;;6207970;28;20042;-70
2022/02/24 06:13:38;;;;;;;3.80;2.38;;;9.80;56.50;;;;;;6198393;28;20426;-70
2022/02/24 06:16:38;;;;;;;5.10;2.33;;;9.80;56.50;;;;;;6198174;28;20065;-70
2022/02/24 06:19:40;;;;;;;4.30;2.35;;;9.80;56.50;;;;;;6198279;28;20031;-70
2022/02/24 06:22:41;;;;;;;11.07;2.97;;;9.80;56.50;;;;;;6198353;28;20039;-70
2022/02/24 06:25:41;;;;;;;6.05;2.38;;;9.90;56.60;;;;;;6196030;28;20038;-70
2022/02/24 06:28:42;;;;;;;6.43;2.90;;;9.90;56.40;;;;;;6198418;28;20470;-70
2022/02/24 06:31:43;;;;;;;11.13;2.67;;;9.90;56.50;;;;;;6196085;28;20023;-70
2022/02/24 06:34:44;;;;;;;4.78;2.20;;;9.90;56.30;;;;;;6198827;28;20034;-70
2022/02/24 06:37:45;;;;;;;5.38;2.10;;;9.90;56.20;;;;;;6213104;28;20097;-70
2022/02/24 06:40:47;;;;;;;5.55;2.60;;;9.90;56.10;;;;;;6192798;28;20149;-70
2022/02/24 06:43:47;;;;;;;5.90;2.22;;;9.90;56.10;;;;;;6213286;28;20034;-70
2022/02/24 06:46:48;;;;;;;4.13;1.80;;;9.90;56.00;;;;;;6214551;28;20088;-71
2022/02/24 06:49:49;;;;;;;9.98;2.70;;;9.90;56.00;;;;;;6196775;28;20034;-72
2022/02/24 06:52:50;;;;;;;7.45;2.83;;;9.90;56.00;;;;;;6198864;28;20358;-69
2022/02/24 06:55:51;;;;;;;9.77;4.60;;;10.00;56.10;;;;;;6197452;28;20117;-72
2022/02/24 06:58:52;;;;;;;7.57;4.55;;;10.00;56.30;;;;;;6213033;28;20146;-70
2022/02/24 07:01:53;;;;;;;17.58;7.55;;;10.00;56.40;;;;;;6212659;28;20089;-70
2022/02/24 07:04:54;;;;;;;11.75;6.78;;;10.00;56.60;;;;;;6213631;28;20447;-72
2022/02/24 07:07:55;;;;;;;9.98;4.78;;;9.90;56.70;;;;;;6198117;28;20049;-72
2022/02/24 07:10:56;;;;;;;8.20;4.72;;;10.00;56.80;;;;;;6193118;28;20049;-70
2022/02/24 07:13:57;;;;;;;10.48;3.80;;;10.00;56.80;;;;;;6184127;28;20384;-71
2022/02/24 07:16:58;;;;;;;11.00;4.63;;;10.00;56.80;;;;;;6181512;28;20077;-71
2022/02/24 07:19:59;;;;;;;8.73;4.53;;;10.00;56.80;;;;;;6203583;28;20081;-71
2022/02/24 07:23:00;;;;;;;17.25;6.95;;;10.10;56.80;;;;;;6196394;28;20027;-72
2022/02/24 07:26:01;;;;;;;8.05;4.97;;;10.10;56.70;;;;;;6178685;28;20114;-71
2022/02/24 07:29:02;;;;;;;14.55;6.93;;;10.20;56.60;;;;;;6189290;28;20112;-71
2022/02/24 07:32:03;;;;;;;10.40;5.18;;;10.20;56.60;;;;;;6200471;28;20364;-71
2022/02/24 07:35:04;;;;;;;10.52;6.20;;;10.30;56.50;;;;;;6200612;28;20065;-71
2022/02/24 07:38:05;;;;;;;18.85;7.03;;;10.30;56.40;;;;;;6199101;28;20447;-71
2022/02/24 07:41:06;;;;;;;12.35;5.57;;;10.30;56.40;;;;;;6214790;28;20034;-71
2022/02/24 07:44:08;;;;;;;14.80;7.10;;;10.40;56.50;;;;;;6200415;28;20034;-71
2022/02/24 07:47:09;;;;;;;12.45;6.78;;;10.40;56.40;;;;;;6200559;28;20080;-71
2022/02/24 07:50:16;;;;;;;17.27;6.50;;;10.40;56.40;;;;;;6216671;28;20035;-71
2022/02/24 07:53:17;;;;;;;11.95;6.68;;;10.50;56.30;;;;;;6215996;28;20356;-71
2022/02/24 07:56:18;;;;;;;23.98;7.35;;;10.50;56.20;;;;;;6217000;28;20038;-71
2022/02/24 07:59:20;;;;;;;16.35;6.80;;;10.50;56.10;;;;;;6192367;28;20357;-71
2022/02/24 08:02:21;;;;;;;14.25;5.75;;;10.60;56.10;;;;;;6176027;28;20035;-71
2022/02/24 08:05:22;;;;;;;13.52;5.32;;;10.70;56.00;;;;;;6202130;28;20038;-71
2022/02/24 08:08:24;;;;;;;16.00;5.70;;;10.80;55.80;;;;;;6214538;28;20121;-70
2022/02/24 08:11:25;;;;;;;12.15;6.35;;;10.80;55.60;;;;;;6176617;28;20357;-71
2022/02/24 08:14:26;;;;;;;12.50;5.55;;;10.90;55.50;;;;;;6188030;28;20049;-71
2022/02/24 08:17:27;;;;;;;10.30;4.35;;;10.90;55.40;;;;;;6179335;28;20404;-71
2022/02/24 08:20:28;;;;;;;12.05;4.13;;;11.00;55.40;;;;;;6189029;28;20042;-72
2022/02/24 08:23:30;;;;;;;9.93;3.95;;;11.10;55.30;;;;;;6202637;28;20026;-70
2022/02/24 08:26:31;;;;;;;14.10;4.35;;;11.30;55.10;;;;;;6200436;28;20034;-71
2022/02/24 08:29:31;;;;;;;12.20;3.70;;;11.40;54.70;;;;;;6214756;28;20132;-72
2022/02/24 08:32:32;;;;;;;14.10;3.83;;;11.50;54.40;;;;;;6182354;28;20037;-71
2022/02/24 08:35:34;;;;;;;11.23;3.55;;;11.50;54.10;;;;;;6200803;28;20042;-71
2022/02/24 08:38:34;;;;;;;5.95;3.42;;;11.60;54.00;;;;;;6198119;28;20046;-73
2022/02/24 08:41:39;;;;;;;10.05;4.20;;;11.80;54.00;;;;;;6199507;28;20034;-71
2022/02/24 08:44:43;;;;;;;12.15;3.90;;;11.90;53.80;;;;;;6199723;28;20451;-70
2022/02/24 08:47:44;;;;;;;11.95;4.30;;;12.10;53.20;;;;;;6205862;28;20073;-71
2022/02/24 08:50:45;;;;;;;9.63;4.03;;;12.30;52.70;;;;;;6180808;28;20054;-72
2022/02/24 08:53:46;;;;;;;7.97;3.42;;;12.50;52.50;;;;;;6214917;28;20069;-72
2022/02/24 08:56:47;;;;;;;6.75;3.55;;;12.60;52.00;;;;;;6214098;28;20189;-71
2022/02/24 08:59:48;;;;;;;6.13;3.05;;;12.80;51.60;;;;;;6215043;28;20045;-71
2022/02/24 09:02:49;;;;;;;10.77;3.35;;;12.90;51.20;;;;;;6214247;28;20082;-72
2022/02/24 09:05:50;;;;;;;8.55;3.17;;;13.00;50.70;;;;;;6214780;28;20038;-71
2022/02/24 09:08:51;;;;;;;14.45;3.60;;;13.10;50.30;;;;;;6198530;28;20039;-71
2022/02/24 09:11:52;;;;;;;8.15;3.33;;;13.20;50.00;;;;;;6199904;28;20042;-71
2022/02/24 09:14:53;;;;;;;9.13;3.60;;;13.30;50.00;;;;;;6214178;28;20082;-71
2022/02/24 09:17:54;;;;;;;12.48;4.65;;;13.40;50.00;;;;;;6215220;28;20062;-70
2022/02/24 09:20:55;;;;;;;12.15;4.18;;;13.40;49.50;;;;;;6190333;28;20039;-71
2022/02/24 09:23:55;;;;;;;20.15;4.30;;;13.40;49.50;;;;;;6165156;28;20527;-70
2022/02/24 09:26:57;;;;;;;10.80;4.43;;;13.40;49.50;;;;;;6199254;28;20037;-71
2022/02/24 09:29:59;;;;;;;7.40;4.00;;;13.50;49.30;;;;;;6197704;28;20114;-70
2022/02/24 09:33:00;;;;;;;11.10;3.80;;;13.50;49.20;;;;;;6198383;28;20143;-70
2022/02/24 09:36:01;;;;;;;14.02;4.35;;;13.60;49.20;;;;;;6199030;28;20035;-72
2022/02/24 09:39:02;;;;;;;8.38;4.15;;;13.70;49.10;;;;;;6200938;28;20185;-72
2022/02/24 09:42:03;;;;;;;11.75;3.67;;;13.70;49.00;;;;;;6197651;28;20050;-71
2022/02/24 09:45:05;;;;;;;14.40;3.88;;;13.80;48.90;;;;;;6195104;28;20466;-72
2022/02/24 09:48:08;;;;;;;10.10;4.35;;;13.90;48.90;;;;;;6197820;28;20034;-70
2022/02/24 09:51:16;;;;;;;13.00;4.47;;;14.00;48.80;;;;;;6182131;28;20058;-71
2022/02/24 09:54:17;;;;;;;23.42;4.40;;;14.10;48.60;;;;;;6196667;28;20431;-71
2022/02/24 09:57:18;;;;;;;11.38;4.43;;;14.20;48.40;;;;;;6207157;28;20050;-72
2022/02/24 10:00:20;;;;;;;25.88;4.22;;;14.30;48.40;;;;;;6194313;28;20034;-71
2022/02/24 10:03:28;;;;;;;16.70;4.53;;;14.40;48.30;;;;;;6196929;28;20069;-71
2022/02/24 10:06:55;;;;;;;20.08;3.92;;;14.50;48.20;;;;;;6214057;28;20034;-70
2022/02/24 10:09:56;;;;;;;9.77;3.30;;;14.60;48.10;;;;;;6183374;28;20039;-71
2022/02/24 10:13:10;;;;;;;13.75;4.57;;;14.70;47.90;;;;;;6184264;28;20034;-73
2022/02/24 10:16:11;;;;;;;10.00;3.88;;;14.70;47.80;;;;;;6204712;28;20045;-71
2022/02/24 10:19:12;;;;;;;7.20;3.30;;;14.90;47.70;;;;;;6165586;28;20057;-71
2022/02/24 10:22:29;;;;;;;12.52;4.00;;;15.00;47.50;;;;;;6197622;28;20047;-71
2022/02/24 10:25:51;;;;;;;16.58;4.32;;;15.10;47.10;;;;;;6189431;28;20089;-71
2022/02/24 10:28:52;;;;;;;14.68;4.38;;;15.20;46.60;;;;;;6180632;28;20374;-71
2022/02/24 10:31:53;;;;;;;9.48;3.47;;;15.30;46.20;;;;;;6197069;28;20034;-70
2022/02/24 10:34:54;;;;;;;15.35;4.20;;;15.50;46.00;;;;;;6195179;28;20378;-71
2022/02/24 10:38:09;;;;;;;14.13;4.55;;;15.80;45.80;;;;;;6197692;28;20039;-71
2022/02/24 10:41:10;;;;;;;19.20;3.70;;;16.10;45.30;;;;;;6188119;28;20049;-71
2022/02/24 10:44:19;;;;;;;12.20;3.60;;;16.50;44.70;;;;;;6197786;28;20035;-72
2022/02/24 10:47:20;;;;;;;8.90;3.13;;;16.70;44.10;;;;;;6212457;28;20109;-72
2022/02/24 10:50:21;;;;;;;8.35;3.60;;;16.80;43.50;;;;;;6212572;28;20323;-70
2022/02/24 10:53:28;;;;;;;6.60;3.00;;;16.90;43.50;;;;;;6200800;28;20043;-71
2022/02/24 10:56:31;;;;;;;12.85;3.00;;;17.00;43.10;;;;;;6217200;28;20723;-72
2022/02/24 10:59:32;;;;;;;12.73;3.25;;;17.10;42.90;;;;;;6217425;28;20038;-71
2022/02/24 11:02:34;;;;;;;7.45;3.25;;;17.20;42.60;;;;;;6201357;28;20046;-71
2022/02/24 11:05:36;;;;;;;9.02;3.28;;;17.30;42.50;;;;;;6201661;28;20466;-71
2022/02/24 11:08:37;;;;;;;12.90;3.35;;;17.50;42.30;;;;;;6200570;28;20042;-72
2022/02/24 11:11:38;;;;;;;13.13;3.42;;;17.60;41.90;;;;;;6216967;28;20451;-72
2022/02/24 11:14:40;;;;;;;13.90;4.55;;;17.60;41.60;;;;;;6217892;28;20038;-71
2022/02/24 11:17:41;;;;;;;17.30;6.28;;;17.70;41.50;;;;;;6216373;28;20046;-72
2022/02/24 11:20:42;;;;;;;7.32;2.70;;;17.90;41.60;;;;;;6201906;28;20464;-73
2022/02/24 11:23:45;;;;;;;21.30;6.85;;;18.10;40.90;;;;;;6193881;28;20046;-73
2022/02/24 11:27:15;;;;;;;16.25;3.70;;;18.30;40.70;;;;;;6216338;28;20407;-72
2022/02/24 11:30:29;;;;;;;9.98;2.90;;;18.60;40.40;;;;;;6199819;28;20034;-71
2022/02/24 11:33:31;;;;;;;7.22;3.22;;;19.00;39.60;;;;;;6181904;28;20336;-73
2022/02/24 11:36:44;;;;;;;12.00;4.68;;;19.20;39.10;;;;;;6200360;28;20026;-72
2022/02/24 11:39:46;;;;;;;16.75;3.05;;;19.40;38.40;;;;;;6181504;28;20089;-73
2022/02/24 11:43:11;;;;;;;17.13;6.13;;;19.60;37.40;;;;;;6191622;28;20030;-72
2022/02/24 11:46:13;;;;;;;10.60;3.35;;;19.80;37.50;;;;;;6207952;28;20486;-71
2022/02/24 11:49:14;;;;;;;8.00;2.78;;;20.00;37.10;;;;;;6180259;28;20045;-72
2022/02/24 11:52:21;;;;;;;16.70;3.22;;;20.40;36.50;;;;;;6197863;28;20038;-72
2022/02/24 11:55:43;;;;;;;12.23;3.50;;;20.70;35.80;;;;;;6214792;28;20038;-72
2022/02/24 11:58:59;;;;;;;13.07;2.92;;;21.10;35.10;;;;;;6199607;28;20054;-71
2022/02/24 12:02:00;;;;;;;14.38;2.75;;;21.40;34.60;;;;;;6198216;28;20062;-72
2022/02/24 12:05:01;;;;;;;9.10;2.40;;;21.70;34.10;;;;;;6214217;28;20048;-72
2022/02/24 12:08:06;;;;;;;9.73;2.45;;;22.00;33.50;;;;;;6213043;28;20117;-72
2022/02/24 12:11:39;;;;;;;9.88;3.05;;;22.40;33.10;;;;;;6196147;28;20042;-71
2022/02/24 12:14:41;;;;;;;9.00;2.80;;;22.70;32.10;;;;;;6197209;28;20045;-72
2022/02/24 12:17:49;;;;;;;8.20;2.22;;;23.00;31.60;;;;;;6166623;28;20046;-71
2022/02/24 12:20:50;;;;;;;;;;;23.40;31.00;;;;;;6196457;28;20092;-72
2022/02/24 12:23:53;;;;;;;9.85;2.55;;;23.70;30.00;;;;;;6193986;28;19918;-72
2022/02/24 12:26:55;;;;;;;13.63;2.50;;;23.80;29.60;;;;;;6199059;28;20454;-73
2022/02/24 12:30:18;;;;;;;12.70;2.97;;;23.50;30.00;;;;;;6195635;28;20193;-72
2022/02/24 12:33:19;;;;;;;8.35;2.40;;;23.40;30.20;;;;;;6195905;28;20090;-71
2022/02/24 12:36:20;;;;;;;13.75;4.30;;;23.40;30.00;;;;;;6197452;28;20038;-71
2022/02/24 12:39:22;;;;;;;8.75;1.95;;;23.60;29.80;;;;;;6197227;28;20408;-72
2022/02/24 12:42:23;;;;;;;7.35;2.53;;;24.00;29.40;;;;;;6179865;28;20050;-72
2022/02/24 12:45:25;;;;;;;10.90;2.10;;;24.30;28.80;;;;;;6179295;28;20049;-72
2022/02/24 12:48:26;;;;;;;9.05;2.78;;;24.70;28.20;;;;;;6195772;28;20034;-72
2022/02/24 12:51:26;;;;;;;13.52;2.40;;;25.00;27.80;;;;;;6194575;28;20038;-72
2022/02/24 12:54:27;;;;;;;6.90;2.03;;;25.10;27.20;;;;;;6187036;28;20050;-72
2022/02/24 12:57:28;;;;;;;7.25;2.30;;;24.90;27.40;;;;;;6211616;28;20117;-72
2022/02/24 13:00:34;;;;;;;10.88;1.90;;;24.70;27.60;;;;;;6197086;28;20038;-72
2022/02/24 13:03:35;;;;;;;4.25;1.80;;;24.30;28.00;;;;;;6195638;28;20085;-71
2022/02/24 13:06:38;;;;;;;3.80;1.95;;;23.80;28.40;;;;;;6212054;28;20042;-71
2022/02/24 13:09:47;;;;;;;7.07;1.92;;;23.30;28.80;;;;;;6194305;28;20404;-71
2022/02/24 13:12:47;;;;;;;6.32;1.77;;;22.70;29.30;;;;;;6180012;28;20053;-72
2022/02/24 13:15:48;;;;;;;13.20;2.33;;;22.20;29.80;;;;;;6198490;28;20034;-72
2022/02/24 13:18:51;;;;;;;11.55;2.30;;;21.90;30.10;;;;;;6195460;28;20486;-71
2022/02/24 13:22:01;;;;;;;11.63;2.13;;;21.70;30.50;;;;;;6196754;28;20041;-71
2022/02/24 13:25:07;;;;;;;6.32;2.33;;;21.40;30.80;;;;;;6197603;28;20125;-72
2022/02/24 13:28:09;;;;;;;7.70;2.20;;;21.10;31.10;;;;;;6197641;28;20038;-71
2022/02/24 13:31:17;;;;;;;5.25;1.95;;;20.90;31.40;;;;;;6211283;28;20046;-71
2022/02/24 13:34:19;;;;;;;8.25;2.00;;;20.70;31.60;;;;;;6210793;28;20136;-71
2022/02/24 13:37:40;;;;;;;5.32;1.90;;;20.60;31.90;;;;;;6188303;28;20047;-71
2022/02/24 13:40:45;;;;;;;9.40;1.92;;;20.40;32.20;;;;;;6188299;28;20456;-71
2022/02/24 13:43:47;;;;;;;8.93;2.65;;;20.30;32.50;;;;;;6196624;28;20049;-71
2022/02/24 13:46:50;;;;;;;11.45;2.30;;;20.30;32.70;;;;;;6195757;28;20097;-71
2022/02/24 13:49:51;;;;;;;5.75;1.60;;;20.30;32.90;;;;;;6179857;28;20375;-72
2022/02/24 13:52:56;;;;;;;11.75;1.83;;;20.30;33.10;;;;;;6196387;28;20034;-73
2022/02/24 13:56:08;;;;;;;4.68;2.03;;;20.20;33.10;;;;;;6195059;28;20438;-71
2022/02/24 13:59:09;;;;;;;5.57;1.58;;;20.00;33.10;;;;;;6207071;28;20038;-71
2022/02/24 14:02:11;;;;;;;11.43;2.45;;;20.00;33.10;;;;;;6194173;28;20041;-71
2022/02/24 14:05:16;;;;;;;13.77;2.22;;;19.90;33.30;;;;;;6178587;28;20049;-71
2022/02/24 14:08:17;;;;;;;18.70;2.38;;;19.90;33.30;;;;;;6168494;28;20116;-72
2022/02/24 14:11:26;;;;;;;6.43;1.90;;;19.90;33.30;;;;;;6154585;28;20050;-71
2022/02/24 14:14:26;;;;;;;5.45;1.70;;;19.90;33.20;;;;;;6185039;28;20042;-72
2022/02/24 14:17:31;;;;;;;12.13;3.00;;;19.90;33.20;;;;;;6208847;28;20526;-71
2022/02/24 14:20:31;;;;;;;10.43;2.90;;;19.90;33.20;;;;;;6204129;28;20177;-71
2022/02/24 14:23:34;;;;;;;10.95;2.10;;;19.90;33.30;;;;;;6184145;28;20439;-70
2022/02/24 14:26:34;;;;;;;8.82;2.40;;;19.80;33.40;;;;;;6172037;28;20363;-72
2022/02/24 14:29:36;;;;;;;17.23;2.33;;;19.90;33.50;;;;;;6192707;28;20030;-71
2022/02/24 14:32:38;;;;;;;6.78;2.10;;;19.80;33.50;;;;;;6210441;28;20413;-71
2022/02/24 14:35:39;;;;;;;8.93;2.47;;;19.70;33.60;;;;;;6192527;28;20463;-71
2022/02/24 14:38:40;;;;;;;9.52;2.22;;;19.60;33.60;;;;;;6174733;28;20166;-71
2022/02/24 14:41:41;;;;;;;13.88;2.70;;;19.50;33.70;;;;;;6193552;28;20030;-71
2022/02/24 14:44:42;;;;;;;6.63;1.90;;;19.30;33.90;;;;;;6194239;28;20125;-71
2022/02/24 14:47:43;;;;;;;9.70;2.17;;;19.30;34.20;;;;;;6210531;28;20034;-71
2022/02/24 14:50:44;;;;;;;7.65;1.83;;;19.30;34.20;;;;;;6209537;28;20046;-71
2022/02/24 14:53:45;;;;;;;13.57;2.55;;;19.30;34.20;;;;;;6194653;28;20038;-72
2022/02/24 14:56:46;;;;;;;6.88;1.88;;;19.30;34.20;;;;;;6210035;28;20426;-72
2022/02/24 14:59:48;;;;;;;8.32;2.13;;;19.30;34.20;;;;;;6194647;28;20042;-71
2022/02/24 15:02:49;;;;;;;9.23;1.90;;;19.30;34.30;;;;;;6194618;28;20038;-72
2022/02/24 15:05:50;;;;;;;14.95;1.98;;;19.20;34.40;;;;;;6193056;28;20046;-71
2022/02/24 15:08:51;;;;;;;16.85;2.58;;;19.20;34.50;;;;;;6208605;28;20039;-72
2022/02/24 15:11:52;;;;;;;8.10;1.88;;;19.20;34.60;;;;;;6194392;28;20034;-71
2022/02/24 15:14:53;;;;;;;4.95;1.67;;;19.20;34.60;;;;;;6189199;28;20031;-71
2022/02/24 15:17:58;;;;;;;12.13;2.05;;;19.20;34.60;;;;;;6169751;28;20035;-71
2022/02/24 15:20:59;;;;;;;9.50;1.92;;;19.10;34.70;;;;;;6184544;28;20096;-71
2022/02/24 15:24:01;;;;;;;11.32;2.08;;;19.10;34.80;;;;;;6194199;28;20045;-71
2022/02/24 15:27:02;;;;;;;13.10;2.30;;;19.00;34.80;;;;;;6195245;28;20455;-71
2022/02/24 15:30:04;;;;;;;15.90;2.42;;;18.90;34.90;;;;;;6195732;28;20039;-71
2022/02/24 15:33:05;;;;;;;10.07;2.15;;;18.90;35.10;;;;;;6195492;28;20034;-74
2022/02/24 15:36:06;;;;;;;6.28;2.10;;;19.00;35.10;;;;;;6195313;28;20121;-71
2022/02/24 15:39:07;;;;;;;9.70;1.88;;;19.00;35.10;;;;;;6183054;28;20479;-72
2022/02/24 15:42:08;;;;;;;15.93;2.35;;;19.10;35.20;;;;;;6167045;28;20052;-72
2022/02/24 15:45:10;;;;;;;6.55;1.80;;;19.10;35.50;;;;;;6169423;28;20360;-72